Time;durP1;ratioP1;P1;durP2;ratioP2;P2;SDS_P1;SDS_P2;PMS_P1;PMS_P2;Temp;Humidity;BMP_temperature;BMP_pressure;BME280_temperature;BME280_humidity;BME280_pressure;Samples;Min_cycle;Max_cycle;Signal;HPM_P1;HPM_P2
2021/10/04 00:00:32;;;;;;;4.20;2.70;;;13.20;99.90;;;;;;5001650;28;20249;-62
2021/10/04 00:03:00;;;;;;;3.30;2.67;;;13.20;99.90;;;;;;4994473;28;20287;-62
2021/10/04 00:05:29;;;;;;;2.97;2.67;;;13.20;99.90;;;;;;4996717;28;20593;-63
2021/10/04 00:07:57;;;;;;;4.07;2.70;;;13.20;99.90;;;;;;4994341;28;20332;-63
2021/10/04 00:10:25;;;;;;;3.87;2.70;;;13.20;99.90;;;;;;4991215;28;20660;-63
2021/10/04 00:12:53;;;;;;;4.50;3.13;;;13.20;99.90;;;;;;4995025;28;20712;-62
2021/10/04 00:15:24;;;;;;;5.57;2.60;;;13.20;99.90;;;;;;5000875;28;20237;-63
2021/10/04 00:17:53;;;;;;;4.27;3.17;;;13.20;99.90;;;;;;4996691;28;20325;-62
2021/10/04 00:20:21;;;;;;;4.17;2.90;;;13.10;99.90;;;;;;4999645;28;20232;-63
2021/10/04 00:22:49;;;;;;;4.07;3.17;;;13.20;99.90;;;;;;4993064;28;20271;-63
2021/10/04 00:25:18;;;;;;;3.30;2.80;;;13.10;99.90;;;;;;4995119;28;20234;-63
2021/10/04 00:27:46;;;;;;;4.93;3.10;;;13.10;99.90;;;;;;4996099;28;20264;-61
2021/10/04 00:30:16;;;;;;;4.47;3.20;;;13.00;99.90;;;;;;5002994;28;20233;-62
2021/10/04 00:32:48;;;;;;;5.77;3.30;;;13.00;99.90;;;;;;4989884;28;20783;-63
2021/10/04 00:35:19;;;;;;;5.07;2.93;;;12.90;99.90;;;;;;4997498;28;20298;-63
2021/10/04 00:37:48;;;;;;;4.57;3.00;;;13.00;99.90;;;;;;4999974;28;20244;-62
2021/10/04 00:40:19;;;;;;;4.00;2.90;;;12.90;99.90;;;;;;4996930;28;21112;-63
2021/10/04 00:42:47;;;;;;;3.30;3.00;;;12.90;99.90;;;;;;4994605;28;20232;-62
2021/10/04 00:45:16;;;;;;;4.53;2.90;;;12.90;99.90;;;;;;4995294;28;20323;-62
2021/10/04 00:47:46;;;;;;;4.20;2.47;;;12.90;99.90;;;;;;4995822;28;20241;-63
2021/10/04 00:50:19;;;;;;;3.70;3.00;;;12.80;99.90;;;;;;4994036;28;20288;-63
2021/10/04 00:52:47;;;;;;;3.90;3.10;;;12.80;99.90;;;;;;4996846;28;20769;-61
2021/10/04 00:55:18;;;;;;;5.90;2.97;;;12.80;99.90;;;;;;4995640;28;20244;-62
2021/10/04 00:57:47;;;;;;;5.00;3.73;;;12.80;99.90;;;;;;4987095;28;20279;-62
2021/10/04 01:00:22;;;;;;;6.33;3.10;;;12.70;99.90;;;;;;4992649;28;20715;-61
2021/10/04 01:02:53;;;;;;;3.63;3.23;;;12.70;99.90;;;;;;4990117;28;20327;-62
2021/10/04 01:05:21;;;;;;;4.93;3.37;;;12.70;99.90;;;;;;4996908;28;20286;-62
2021/10/04 01:07:50;;;;;;;3.30;3.00;;;12.70;99.90;;;;;;4993592;28;20247;-62
2021/10/04 01:10:19;;;;;;;3.23;2.90;;;12.60;99.90;;;;;;4998560;28;20243;-62
2021/10/04 01:12:49;;;;;;;3.73;3.27;;;12.70;99.90;;;;;;4988517;28;20285;-63
2021/10/04 01:15:20;;;;;;;4.77;2.73;;;12.70;99.90;;;;;;4998594;28;20250;-62
2021/10/04 01:17:49;;;;;;;6.03;3.27;;;12.60;99.90;;;;;;4993996;28;20326;-62
2021/10/04 01:20:24;;;;;;;5.77;3.27;;;12.60;99.90;;;;;;4993686;28;20332;-63
2021/10/04 01:22:53;;;;;;;4.30;2.83;;;12.60;99.90;;;;;;4997130;28;20571;-62
2021/10/04 01:25:23;;;;;;;5.23;3.20;;;12.60;99.90;;;;;;4992379;28;20627;-63
2021/10/04 01:27:52;;;;;;;3.93;3.30;;;12.50;99.90;;;;;;4989676;28;20245;-62
2021/10/04 01:30:24;;;;;;;3.77;2.93;;;12.50;99.90;;;;;;4990423;28;20249;-62
2021/10/04 01:32:53;;;;;;;3.40;3.10;;;12.50;99.90;;;;;;4991355;28;20236;-61
2021/10/04 01:35:23;;;;;;;4.40;2.87;;;12.40;99.90;;;;;;4996808;28;20246;-61
2021/10/04 01:37:52;;;;;;;4.97;3.47;;;12.40;99.90;;;;;;4996221;28;20251;-62
2021/10/04 01:40:21;;;;;;;4.87;3.00;;;12.40;99.90;;;;;;4988950;28;20366;-62
2021/10/04 01:42:50;;;;;;;4.03;3.20;;;12.40;99.90;;;;;;4989012;28;20231;-62
2021/10/04 01:45:20;;;;;;;5.33;3.50;;;12.40;99.90;;;;;;4993743;28;20283;-62
2021/10/04 01:47:48;;;;;;;3.87;3.33;;;12.40;99.90;;;;;;4990581;28;20601;-62
2021/10/04 01:50:18;;;;;;;5.13;3.60;;;12.40;99.90;;;;;;4997077;28;20267;-62
2021/10/04 01:52:48;;;;;;;4.80;3.23;;;12.40;99.90;;;;;;4988798;28;20275;-62
2021/10/04 01:55:16;;;;;;;3.27;2.97;;;12.40;99.90;;;;;;4997309;28;20758;-62
2021/10/04 01:57:44;;;;;;;4.77;3.43;;;12.40;99.90;;;;;;4990896;28;20663;-62
2021/10/04 02:00:14;;;;;;;4.77;3.27;;;12.30;99.90;;;;;;4988063;28;20249;-62
2021/10/04 02:02:44;;;;;;;3.87;2.73;;;12.30;99.90;;;;;;4993083;28;20247;-62
2021/10/04 02:05:13;;;;;;;4.50;3.10;;;12.30;99.90;;;;;;4990586;28;21123;-62
2021/10/04 02:07:42;;;;;;;5.07;3.37;;;12.40;99.90;;;;;;4989676;28;20332;-62
2021/10/04 02:10:14;;;;;;;4.03;2.60;;;12.40;99.90;;;;;;4992377;28;20326;-63
2021/10/04 02:12:42;;;;;;;4.23;2.70;;;12.30;99.90;;;;;;4990316;28;20269;-62
2021/10/04 02:15:12;;;;;;;3.67;2.90;;;12.30;99.90;;;;;;4993266;28;20716;-62
2021/10/04 02:17:41;;;;;;;5.90;3.23;;;12.30;99.90;;;;;;4992645;28;20328;-62
2021/10/04 02:20:13;;;;;;;4.63;3.27;;;12.20;99.90;;;;;;4989425;28;20644;-62
2021/10/04 02:22:42;;;;;;;5.80;3.20;;;12.20;99.90;;;;;;4985162;28;21456;-62
2021/10/04 02:25:13;;;;;;;3.50;3.20;;;12.20;99.90;;;;;;4994781;28;20331;-61
2021/10/04 02:27:41;;;;;;;4.10;3.17;;;12.20;99.90;;;;;;4992582;28;20250;-62
2021/10/04 02:30:12;;;;;;;3.30;2.57;;;12.20;99.90;;;;;;4991608;28;20617;-62
2021/10/04 02:32:41;;;;;;;3.93;3.00;;;12.20;99.90;;;;;;4991085;28;20242;-62
2021/10/04 02:35:11;;;;;;;3.93;3.17;;;12.20;99.90;;;;;;4995317;28;20267;-61
2021/10/04 02:37:40;;;;;;;4.37;3.20;;;12.30;99.90;;;;;;4997482;28;20244;-63
2021/10/04 02:40:10;;;;;;;3.37;3.07;;;12.30;99.90;;;;;;4998596;28;20232;-62
2021/10/04 02:42:42;;;;;;;3.87;3.27;;;12.30;99.90;;;;;;4992460;28;20493;-61
2021/10/04 02:45:13;;;;;;;6.13;3.50;;;12.20;99.90;;;;;;4989978;28;20632;-62
2021/10/04 02:47:42;;;;;;;5.50;4.20;;;12.20;99.90;;;;;;4990238;28;20245;-63
2021/10/04 02:50:13;;;;;;;4.97;3.60;;;12.20;99.90;;;;;;4992731;28;20239;-62
2021/10/04 02:52:41;;;;;;;4.83;3.50;;;12.20;99.90;;;;;;4996241;28;20270;-62
2021/10/04 02:55:10;;;;;;;6.20;3.50;;;12.10;99.90;;;;;;4991135;28;20241;-62
2021/10/04 02:57:40;;;;;;;6.37;3.90;;;12.20;99.90;;;;;;4991054;28;20646;-63
2021/10/04 03:00:27;;;;;;;5.30;4.20;;;12.20;99.90;;;;;;4983839;28;20253;-62
2021/10/04 03:02:55;;;;;;;5.67;4.60;;;12.20;99.90;;;;;;5001549;28;20240;-61
2021/10/04 03:05:23;;;;;;;7.23;5.03;;;12.10;99.90;;;;;;4994427;28;20247;-61
2021/10/04 03:07:51;;;;;;;6.00;4.80;;;12.10;99.90;;;;;;4978868;28;20368;-64
2021/10/04 03:10:19;;;;;;;6.87;4.80;;;12.10;99.90;;;;;;4988154;28;20252;-63
2021/10/04 03:12:49;;;;;;;6.63;5.07;;;12.10;99.90;;;;;;4989477;28;20233;-63
2021/10/04 03:15:17;;;;;;;6.23;5.20;;;12.10;99.90;;;;;;4993261;28;20232;-62
2021/10/04 03:17:45;;;;;;;8.53;5.50;;;12.10;99.90;;;;;;4991793;28;20299;-63
2021/10/04 03:20:13;;;;;;;7.93;5.30;;;12.10;99.90;;;;;;4988732;28;20722;-61
2021/10/04 03:22:42;;;;;;;6.00;5.27;;;12.10;99.90;;;;;;4986764;28;20633;-62
2021/10/04 03:25:11;;;;;;;7.10;5.53;;;12.00;99.90;;;;;;4994937;28;20251;-61
2021/10/04 03:27:39;;;;;;;9.40;6.07;;;12.10;99.90;;;;;;4987966;28;20712;-62
2021/10/04 03:30:09;;;;;;;9.90;5.73;;;12.10;99.90;;;;;;4986237;28;20670;-63
2021/10/04 03:32:37;;;;;;;8.77;6.10;;;12.00;99.90;;;;;;4988049;28;20270;-61
2021/10/04 03:35:06;;;;;;;9.93;6.10;;;12.10;99.90;;;;;;4988600;28;20240;-62
2021/10/04 03:37:34;;;;;;;9.53;6.60;;;12.00;99.90;;;;;;4986629;28;20240;-63
2021/10/04 03:40:03;;;;;;;10.73;6.40;;;12.00;99.90;;;;;;4992088;28;20308;-61
2021/10/04 03:42:32;;;;;;;10.30;7.30;;;12.10;99.90;;;;;;4984656;28;20239;-61
2021/10/04 03:45:00;;;;;;;8.03;6.40;;;12.00;99.90;;;;;;4994950;28;20530;-61
2021/10/04 03:47:30;;;;;;;10.80;7.00;;;12.00;99.90;;;;;;4983402;28;20229;-62
2021/10/04 03:49:58;;;;;;;9.30;7.10;;;12.00;99.90;;;;;;4982832;28;20783;-62
2021/10/04 03:52:26;;;;;;;10.67;7.40;;;11.90;99.90;;;;;;4993818;28;20238;-62
2021/10/04 03:54:54;;;;;;;9.43;6.90;;;11.90;99.90;;;;;;4998320;28;20424;-62
2021/10/04 03:57:22;;;;;;;11.03;6.87;;;11.90;99.90;;;;;;4990748;28;20662;-61
2021/10/04 03:59:50;;;;;;;9.30;7.63;;;11.90;99.90;;;;;;4996554;28;20236;-62
2021/10/04 04:02:18;;;;;;;9.33;7.90;;;11.90;99.90;;;;;;4992748;28;20748;-62
2021/10/04 04:04:48;;;;;;;10.57;7.80;;;11.90;99.90;;;;;;4988316;28;20258;-61
2021/10/04 04:07:16;;;;;;;10.80;7.97;;;11.90;99.90;;;;;;4990174;28;20757;-61
2021/10/04 04:09:44;;;;;;;10.70;7.77;;;11.90;99.90;;;;;;4993749;28;20268;-62
2021/10/04 04:12:12;;;;;;;12.70;8.07;;;11.90;99.90;;;;;;4990290;28;20599;-61
2021/10/04 04:14:41;;;;;;;10.63;7.97;;;11.90;99.90;;;;;;4991998;28;20276;-61
2021/10/04 04:17:09;;;;;;;12.57;7.90;;;11.90;99.90;;;;;;4988942;28;20263;-62
2021/10/04 04:19:37;;;;;;;10.53;8.43;;;11.90;99.90;;;;;;4988841;28;20578;-62
2021/10/04 04:22:06;;;;;;;11.47;8.70;;;11.90;99.90;;;;;;4995260;28;20314;-61
2021/10/04 04:24:34;;;;;;;9.90;7.87;;;11.80;99.90;;;;;;4986910;28;20620;-61
2021/10/04 04:27:06;;;;;;;10.00;8.17;;;11.80;99.90;;;;;;4986626;28;20240;-61
2021/10/04 04:29:36;;;;;;;10.10;7.33;;;11.80;99.90;;;;;;4980959;28;20246;-62
2021/10/04 04:32:05;;;;;;;12.53;8.60;;;11.80;99.90;;;;;;4997695;28;20267;-62
2021/10/04 04:34:33;;;;;;;12.10;7.90;;;11.80;99.90;;;;;;4983629;28;20719;-61
2021/10/04 04:37:01;;;;;;;13.60;7.80;;;11.80;99.90;;;;;;4988162;28;20229;-62
2021/10/04 04:39:32;;;;;;;12.10;8.23;;;11.80;99.90;;;;;;4986840;28;20324;-61
2021/10/04 04:42:01;;;;;;;11.97;8.40;;;11.80;99.90;;;;;;4983912;28;20261;-62
2021/10/04 04:44:29;;;;;;;11.23;7.90;;;11.80;99.90;;;;;;4986126;28;20242;-61
2021/10/04 04:46:57;;;;;;;11.13;7.60;;;11.80;99.90;;;;;;4983491;28;20255;-62
2021/10/04 04:49:26;;;;;;;9.07;7.43;;;11.80;99.90;;;;;;4985200;28;20669;-62
2021/10/04 04:51:58;;;;;;;10.00;8.00;;;11.80;99.90;;;;;;4986167;28;20243;-62
2021/10/04 04:54:27;;;;;;;11.27;7.90;;;11.80;99.90;;;;;;4989123;28;20335;-62
2021/10/04 04:56:59;;;;;;;12.50;7.93;;;11.80;99.90;;;;;;4983425;28;20256;-61
2021/10/04 04:59:27;;;;;;;9.90;7.23;;;11.80;99.90;;;;;;4984631;28;20713;-62
2021/10/04 05:01:56;;;;;;;13.13;7.67;;;11.70;99.90;;;;;;4982516;28;20754;-61
2021/10/04 05:04:24;;;;;;;14.20;7.77;;;11.80;99.90;;;;;;4984353;28;20584;-63
2021/10/04 05:06:53;;;;;;;11.23;7.70;;;11.80;99.90;;;;;;4988414;28;20236;-62
2021/10/04 05:09:21;;;;;;;11.50;7.80;;;11.80;99.90;;;;;;4986781;28;20292;-62
2021/10/04 05:11:49;;;;;;;9.93;7.47;;;11.80;99.90;;;;;;4983971;28;20240;-62
2021/10/04 05:14:18;;;;;;;11.73;7.83;;;11.80;99.90;;;;;;4987724;28;20247;-62
2021/10/04 05:16:47;;;;;;;10.33;7.30;;;11.80;99.90;;;;;;4982924;28;20516;-61
2021/10/04 05:19:15;;;;;;;10.33;7.70;;;11.70;99.90;;;;;;4983448;28;20241;-63
2021/10/04 05:21:46;;;;;;;11.40;7.03;;;11.80;99.90;;;;;;4982756;28;20245;-62
2021/10/04 05:24:14;;;;;;;10.03;7.03;;;11.80;99.90;;;;;;4983471;28;20517;-61
2021/10/04 05:26:43;;;;;;;9.93;6.80;;;11.80;99.90;;;;;;4987903;28;20243;-61
2021/10/04 05:29:11;;;;;;;10.00;7.37;;;11.80;99.90;;;;;;4981743;28;20311;-62
2021/10/04 05:31:41;;;;;;;11.60;7.27;;;11.80;99.90;;;;;;4990414;28;20238;-62
2021/10/04 05:34:09;;;;;;;10.27;6.97;;;11.80;99.90;;;;;;4994301;28;20267;-61
2021/10/04 05:36:37;;;;;;;9.67;6.50;;;11.80;99.90;;;;;;4986300;28;20228;-62
2021/10/04 05:39:05;;;;;;;9.07;6.77;;;11.80;99.90;;;;;;4995659;28;20269;-63
2021/10/04 05:41:33;;;;;;;14.30;7.10;;;11.80;99.90;;;;;;4986520;28;20232;-61
2021/10/04 05:44:01;;;;;;;9.17;6.00;;;11.80;99.90;;;;;;4992988;28;20327;-61
2021/10/04 05:46:30;;;;;;;8.90;5.77;;;11.80;99.90;;;;;;4983637;28;20683;-62
2021/10/04 05:48:59;;;;;;;10.00;6.70;;;11.80;99.90;;;;;;4989706;28;20260;-62
2021/10/04 05:51:27;;;;;;;10.10;5.93;;;11.80;99.90;;;;;;4985376;28;20259;-62
2021/10/04 05:53:55;;;;;;;10.93;5.60;;;11.80;99.90;;;;;;4987503;28;20237;-62
2021/10/04 05:56:24;;;;;;;7.87;5.93;;;11.70;99.90;;;;;;4989423;28;20331;-62
2021/10/04 05:58:52;;;;;;;7.83;5.53;;;11.70;99.90;;;;;;4984251;28;20248;-63
2021/10/04 06:01:20;;;;;;;7.70;5.40;;;11.80;99.90;;;;;;4989790;28;20297;-62
2021/10/04 06:03:48;;;;;;;9.07;5.43;;;11.70;99.90;;;;;;4988555;28;20243;-63
2021/10/04 06:06:18;;;;;;;8.07;5.60;;;11.70;99.90;;;;;;4984835;28;20240;-62
2021/10/04 06:08:46;;;;;;;7.20;5.07;;;11.70;99.90;;;;;;4986647;28;20244;-61
2021/10/04 06:11:14;;;;;;;8.23;5.30;;;11.70;99.90;;;;;;4992259;28;20631;-62
2021/10/04 06:13:42;;;;;;;9.23;4.90;;;11.70;99.90;;;;;;4982562;28;20247;-62
2021/10/04 06:16:10;;;;;;;6.93;4.67;;;11.70;99.90;;;;;;4993744;28;20279;-62
2021/10/04 06:18:39;;;;;;;8.07;4.90;;;11.80;99.90;;;;;;4985286;28;20318;-62
2021/10/04 06:21:08;;;;;;;7.10;4.60;;;11.80;99.90;;;;;;4990945;28;20731;-61
2021/10/04 06:23:40;;;;;;;7.17;4.60;;;11.80;99.90;;;;;;4991149;28;20232;-62
2021/10/04 06:26:08;;;;;;;5.60;4.27;;;11.80;99.90;;;;;;4984061;28;20730;-62
2021/10/04 06:28:36;;;;;;;11.80;4.60;;;11.80;99.90;;;;;;4989007;28;20232;-61
2021/10/04 06:31:05;;;;;;;11.13;4.90;;;11.90;99.90;;;;;;4989479;28;20762;-61
2021/10/04 06:33:33;;;;;;;6.60;4.27;;;11.90;99.90;;;;;;4990094;28;20232;-62
2021/10/04 06:36:01;;;;;;;6.20;4.57;;;12.00;99.90;;;;;;4983688;28;20370;-61
2021/10/04 06:38:29;;;;;;;7.50;4.83;;;12.00;99.90;;;;;;4980202;28;20237;-62
2021/10/04 06:40:59;;;;;;;5.47;4.33;;;12.00;99.90;;;;;;4989892;28;20236;-62
2021/10/04 06:43:27;;;;;;;5.97;4.17;;;12.10;99.90;;;;;;4984699;28;20328;-61
2021/10/04 06:45:55;;;;;;;6.10;3.87;;;12.00;99.90;;;;;;4989167;28;20238;-63
2021/10/04 06:48:23;;;;;;;6.83;3.73;;;12.00;99.90;;;;;;4988201;28;20249;-62
2021/10/04 06:50:53;;;;;;;5.97;3.80;;;12.10;99.90;;;;;;4995197;28;20235;-62
2021/10/04 06:53:21;;;;;;;7.27;3.83;;;12.10;99.90;;;;;;4986801;28;20696;-62
2021/10/04 06:55:49;;;;;;;5.67;3.80;;;12.20;99.90;;;;;;4992449;28;20470;-62
2021/10/04 06:58:19;;;;;;;5.90;3.33;;;12.30;99.90;;;;;;4992220;28;20236;-62
2021/10/04 07:00:47;;;;;;;5.00;3.30;;;12.30;99.90;;;;;;4984765;28;20299;-61
2021/10/04 07:03:15;;;;;;;4.47;3.00;;;12.40;99.90;;;;;;4991158;28;20294;-62
2021/10/04 07:05:45;;;;;;;4.73;2.90;;;12.40;99.90;;;;;;4982036;28;20654;-62
2021/10/04 07:08:13;;;;;;;5.43;3.10;;;12.40;99.90;;;;;;4990880;28;20251;-61
2021/10/04 07:10:41;;;;;;;6.13;3.17;;;12.40;99.90;;;;;;4989382;28;20608;-61
2021/10/04 07:13:09;;;;;;;5.53;3.10;;;12.50;99.90;;;;;;4986964;28;20247;-63
2021/10/04 07:15:40;;;;;;;7.47;3.23;;;12.60;99.90;;;;;;4990418;28;20716;-61
2021/10/04 07:18:08;;;;;;;6.67;3.13;;;12.60;99.90;;;;;;4993123;28;20236;-62
2021/10/04 07:20:36;;;;;;;6.27;2.90;;;12.70;99.90;;;;;;4994628;28;20229;-61
2021/10/04 07:23:05;;;;;;;5.73;2.93;;;12.70;99.90;;;;;;4993190;28;20586;-62
2021/10/04 07:25:34;;;;;;;5.40;2.50;;;12.70;99.90;;;;;;4989786;28;20596;-62
2021/10/04 07:28:03;;;;;;;6.33;3.10;;;12.80;99.90;;;;;;4994975;28;20243;-62
2021/10/04 07:30:33;;;;;;;4.40;2.80;;;12.70;99.90;;;;;;4984636;28;20623;-62
2021/10/04 07:33:04;;;;;;;4.97;2.70;;;12.80;99.90;;;;;;4988046;28;20737;-61
2021/10/04 07:35:33;;;;;;;4.07;2.47;;;12.80;99.90;;;;;;4993458;28;20319;-62
2021/10/04 07:38:01;;;;;;;7.67;2.60;;;12.90;99.90;;;;;;4986555;28;20245;-63
2021/10/04 07:40:30;;;;;;;3.23;2.23;;;12.90;99.90;;;;;;4993492;28;20237;-62
2021/10/04 07:42:58;;;;;;;4.77;2.83;;;13.00;99.90;;;;;;4984912;28;20243;-62
2021/10/04 07:45:26;;;;;;;5.10;2.50;;;13.00;99.90;;;;;;4990410;28;20711;-62
2021/10/04 07:47:54;;;;;;;4.87;2.30;;;13.10;99.90;;;;;;4982810;28;20260;-62
2021/10/04 07:50:24;;;;;;;3.87;2.20;;;13.10;99.90;;;;;;4987697;28;20262;-62
2021/10/04 07:52:52;;;;;;;5.60;2.10;;;13.20;99.90;;;;;;4984536;28;20237;-63
2021/10/04 07:55:22;;;;;;;3.90;2.00;;;13.30;99.90;;;;;;4988072;28;20747;-62
2021/10/04 07:57:50;;;;;;;4.17;2.27;;;13.30;99.90;;;;;;4990562;28;20674;-63
2021/10/04 08:00:20;;;;;;;4.60;2.17;;;13.40;99.90;;;;;;4986831;28;20300;-62
2021/10/04 08:02:48;;;;;;;4.57;1.97;;;13.40;99.90;;;;;;4996696;28;20251;-61
2021/10/04 08:05:17;;;;;;;4.20;2.00;;;13.40;99.90;;;;;;4996784;28;20726;-62
2021/10/04 08:07:46;;;;;;;3.20;2.00;;;13.40;99.90;;;;;;4993459;28;20329;-62
2021/10/04 08:10:14;;;;;;;2.80;2.00;;;13.50;99.90;;;;;;4988998;28;20245;-62
2021/10/04 08:12:43;;;;;;;6.47;2.20;;;13.50;99.90;;;;;;4994405;28;20233;-63
2021/10/04 08:15:12;;;;;;;4.77;1.90;;;13.50;99.90;;;;;;4993417;28;20328;-63
2021/10/04 08:17:40;;;;;;;4.27;2.13;;;13.40;99.90;;;;;;4986525;28;20327;-63
2021/10/04 08:20:10;;;;;;;3.37;1.90;;;13.40;99.90;;;;;;4978627;28;20252;-63
2021/10/04 08:22:39;;;;;;;4.80;2.00;;;13.40;99.90;;;;;;4978572;28;20363;-63
2021/10/04 08:25:12;;;;;;;3.57;2.20;;;13.40;99.90;;;;;;4977850;28;20578;-64
2021/10/04 08:27:40;;;;;;;2.97;1.83;;;13.40;99.90;;;;;;4977666;28;20316;-62
2021/10/04 08:30:10;;;;;;;4.40;1.97;;;13.40;99.90;;;;;;4978312;28;20249;-61
2021/10/04 08:32:38;;;;;;;4.83;2.20;;;13.50;99.90;;;;;;4974200;28;20344;-62
2021/10/04 08:35:07;;;;;;;5.00;1.90;;;13.50;99.90;;;;;;4980656;28;20294;-63
2021/10/04 08:37:35;;;;;;;4.00;2.20;;;13.50;99.90;;;;;;4981504;28;20260;-61
2021/10/04 08:40:07;;;;;;;3.27;1.60;;;13.50;99.90;;;;;;4979651;28;20237;-63
2021/10/04 08:42:37;;;;;;;3.10;1.93;;;13.50;99.90;;;;;;4979909;28;20352;-62
2021/10/04 08:45:07;;;;;;;4.47;1.60;;;13.50;99.90;;;;;;4976151;28;20245;-63
2021/10/04 08:47:38;;;;;;;4.70;1.80;;;13.60;99.90;;;;;;4977567;28;20580;-64
2021/10/04 08:50:09;;;;;;;5.20;1.67;;;13.60;99.90;;;;;;4975299;28;20314;-62
2021/10/04 08:52:37;;;;;;;5.00;1.93;;;13.60;99.90;;;;;;4982351;28;20347;-63
2021/10/04 08:55:07;;;;;;;3.20;2.00;;;13.60;99.90;;;;;;4981299;28;20240;-62
2021/10/04 08:57:36;;;;;;;3.27;1.83;;;13.60;99.90;;;;;;4976623;28;20647;-63
2021/10/04 09:00:07;;;;;;;4.50;1.90;;;13.60;99.90;;;;;;4980318;28;20236;-63
2021/10/04 09:02:36;;;;;;;3.20;1.70;;;13.70;99.90;;;;;;4974609;28;20230;-63
2021/10/04 09:05:11;;;;;;;4.47;1.70;;;13.70;99.90;;;;;;4975153;28;20252;-62
2021/10/04 09:07:44;;;;;;;3.47;1.60;;;13.70;99.90;;;;;;4982752;28;20239;-63
2021/10/04 09:10:16;;;;;;;3.70;1.70;;;13.70;99.90;;;;;;4976317;28;20253;-62
2021/10/04 09:12:48;;;;;;;6.47;2.60;;;13.70;99.90;;;;;;4980448;28;20319;-64
2021/10/04 09:15:22;;;;;;;7.40;3.47;;;13.70;99.90;;;;;;4980812;28;20303;-62
2021/10/04 09:17:51;;;;;;;4.97;2.63;;;13.70;99.90;;;;;;4977187;28;20802;-62
2021/10/04 09:20:20;;;;;;;4.13;2.00;;;13.70;99.90;;;;;;4976695;28;20485;-63
2021/10/04 09:22:48;;;;;;;3.20;1.70;;;13.70;99.90;;;;;;4981907;28;20246;-63
2021/10/04 09:25:17;;;;;;;6.27;2.03;;;13.70;99.90;;;;;;4980955;28;20247;-63
2021/10/04 09:27:48;;;;;;;4.77;2.00;;;13.80;99.90;;;;;;4974895;28;20246;-63
2021/10/04 09:30:26;;;;;;;4.13;1.33;;;13.90;99.90;;;;;;4974424;28;20249;-63
2021/10/04 09:33:01;;;;;;;4.77;1.80;;;13.90;99.90;;;;;;4978865;28;20303;-62
2021/10/04 09:35:31;;;;;;;5.37;1.50;;;14.00;99.90;;;;;;4975730;28;20760;-62
2021/10/04 09:38:16;;;;;;;3.77;1.70;;;14.10;99.90;;;;;;4973476;28;20748;-63
2021/10/04 09:40:47;;;;;;;4.70;1.50;;;14.20;99.90;;;;;;4974268;28;20296;-64
2021/10/04 09:43:28;;;;;;;2.37;1.60;;;14.20;99.90;;;;;;4979315;28;20241;-62
2021/10/04 09:46:01;;;;;;;7.60;2.37;;;14.40;99.90;;;;;;4976168;28;20373;-64
2021/10/04 09:48:29;;;;;;;4.27;1.60;;;14.40;99.90;;;;;;4972448;28;20867;-63
2021/10/04 09:50:58;;;;;;;4.17;1.80;;;14.60;99.90;;;;;;4979396;28;20295;-64
2021/10/04 09:53:26;;;;;;;3.63;1.60;;;14.70;99.90;;;;;;4978001;28;20253;-63
2021/10/04 09:55:54;;;;;;;2.73;1.27;;;14.80;99.90;;;;;;4973366;28;20688;-64
2021/10/04 09:58:32;;;;;;;2.40;1.20;;;15.00;99.90;;;;;;4980161;28;20355;-64
2021/10/04 10:01:02;;;;;;;4.33;1.60;;;15.00;99.90;;;;;;4981748;28;20255;-62
2021/10/04 10:03:38;;;;;;;3.10;1.20;;;15.00;99.90;;;;;;4979912;28;20328;-63
2021/10/04 10:06:26;;;;;;;3.99;1.49;;;15.00;99.90;;;;;;2650007;28;10003976;-63
2021/10/04 10:08:54;;;;;;;4.03;1.30;;;14.90;99.90;;;;;;3954078;28;10001341;-63
2021/10/04 10:11:23;;;;;;;3.90;1.30;;;15.00;99.90;;;;;;4988588;28;20233;-62
2021/10/04 10:13:52;;;;;;;4.57;1.70;;;15.00;99.90;;;;;;4991110;28;20693;-64
2021/10/04 10:16:23;;;;;;;4.13;1.50;;;14.90;99.90;;;;;;4988408;28;20612;-63
2021/10/04 10:19:00;;;;;;;3.63;1.60;;;14.80;99.90;;;;;;4990532;28;20245;-62
2021/10/04 10:21:32;;;;;;;2.50;1.20;;;14.90;99.90;;;;;;4989437;28;20911;-63
2021/10/04 10:24:04;;;;;;;2.47;1.20;;;14.90;99.90;;;;;;4992432;28;20239;-63
2021/10/04 10:26:37;;;;;;;3.67;1.43;;;15.00;99.90;;;;;;4983182;28;20237;-62
2021/10/04 10:29:29;;;;;;;3.63;1.33;;;15.10;99.90;;;;;;4989957;28;20237;-63
2021/10/04 10:32:23;;;;;;;3.77;1.30;;;15.20;99.90;;;;;;4983668;28;20241;-62
2021/10/04 10:34:54;;;;;;;7.83;1.53;;;15.20;99.90;;;;;;4983936;28;20809;-64
2021/10/04 10:37:30;;;;;;;2.73;1.30;;;15.20;99.90;;;;;;4984982;28;20238;-63
2021/10/04 10:40:01;;;;;;;5.17;1.70;;;15.20;99.90;;;;;;4981807;28;20668;-63
2021/10/04 10:42:32;;;;;;;3.80;1.30;;;15.30;99.90;;;;;;4983659;28;20248;-63
2021/10/04 10:45:18;;;;;;;3.87;1.60;;;15.30;99.90;;;;;;4979271;28;20329;-62
2021/10/04 10:47:54;;;;;;;6.13;1.67;;;15.30;99.90;;;;;;4979744;28;20241;-63
2021/10/04 10:50:31;;;;;;;3.67;1.37;;;15.30;99.90;;;;;;4981173;28;20245;-63
2021/10/04 10:53:06;;;;;;;5.03;1.50;;;15.30;99.90;;;;;;4976164;28;20237;-63
2021/10/04 10:55:36;;;;;;;4.60;1.37;;;15.40;99.90;;;;;;4984409;28;20247;-63
2021/10/04 10:58:09;;;;;;;3.87;1.30;;;15.40;99.90;;;;;;4978661;28;20234;-63
2021/10/04 11:00:41;;;;;;;3.13;1.30;;;15.50;99.90;;;;;;4979770;28;20336;-63
2021/10/04 11:03:15;;;;;;;3.20;1.60;;;15.50;99.90;;;;;;4978263;28;20251;-63
2021/10/04 11:05:52;;;;;;;2.60;1.40;;;15.50;99.90;;;;;;4979601;28;20781;-62
2021/10/04 11:08:23;;;;;;;4.83;1.43;;;15.50;99.90;;;;;;4979638;28;20237;-63
2021/10/04 11:11:15;;;;;;;3.33;1.10;;;15.50;99.90;;;;;;4983571;28;20273;-63
2021/10/04 11:13:56;;;;;;;3.77;1.30;;;15.50;99.90;;;;;;4981717;28;20693;-62
2021/10/04 11:16:47;;;;;;;2.77;1.20;;;15.60;99.90;;;;;;4981521;28;20351;-63
2021/10/04 11:19:26;;;;;;;4.93;1.23;;;15.80;99.90;;;;;;4988094;28;20780;-62
2021/10/04 11:21:54;;;;;;;4.53;1.50;;;16.00;99.90;;;;;;4978441;28;20338;-63
2021/10/04 11:24:24;;;;;;;5.97;1.90;;;16.00;99.90;;;;;;4983438;28;20238;-63
2021/10/04 11:26:53;;;;;;;2.37;1.00;;;16.10;99.90;;;;;;4984795;28;20311;-62
2021/10/04 11:29:22;;;;;;;4.43;1.20;;;16.20;99.90;;;;;;4983793;28;20324;-62
2021/10/04 11:31:52;;;;;;;4.43;1.20;;;16.00;99.90;;;;;;4982312;28;20847;-62
2021/10/04 11:34:24;;;;;;;5.27;1.40;;;16.00;99.90;;;;;;4984368;28;20329;-63
2021/10/04 11:36:54;;;;;;;4.60;1.53;;;16.00;99.90;;;;;;4981089;28;20269;-63
2021/10/04 11:39:26;;;;;;;4.00;1.70;;;15.90;99.90;;;;;;4982390;28;20785;-63
2021/10/04 11:41:56;;;;;;;4.50;1.37;;;16.00;99.90;;;;;;4985553;28;20332;-63
2021/10/04 11:44:29;;;;;;;2.87;0.90;;;15.90;99.90;;;;;;4985703;28;20244;-63
2021/10/04 11:47:03;;;;;;;2.30;1.13;;;16.00;99.90;;;;;;4987044;28;20237;-63
2021/10/04 11:49:33;;;;;;;3.50;1.20;;;16.00;99.90;;;;;;4986049;28;20337;-62
2021/10/04 11:52:08;;;;;;;3.97;1.27;;;16.10;99.90;;;;;;4986716;28;20296;-63
2021/10/04 11:54:41;;;;;;;3.30;1.10;;;15.90;99.90;;;;;;4985631;28;20257;-63
2021/10/04 11:57:12;;;;;;;3.73;1.03;;;16.00;99.90;;;;;;4987408;28;20242;-62
2021/10/04 11:59:55;;;;;;;2.90;1.20;;;16.10;99.90;;;;;;4987145;28;20348;-62
2021/10/04 12:02:27;;;;;;;4.60;1.13;;;16.20;99.90;;;;;;4983910;28;20717;-63
2021/10/04 12:05:15;;;;;;;3.07;1.20;;;16.30;99.90;;;;;;4984759;28;20710;-62
2021/10/04 12:08:01;;;;;;;4.00;0.97;;;16.40;99.90;;;;;;4987175;28;20242;-63
2021/10/04 12:10:45;;;;;;;5.50;1.20;;;16.70;99.90;;;;;;4985814;28;20311;-63
2021/10/04 12:13:16;;;;;;;4.07;1.23;;;16.90;99.90;;;;;;4981389;28;20768;-63
2021/10/04 12:15:44;;;;;;;5.67;1.40;;;17.00;99.90;;;;;;4994177;28;20305;-63
2021/10/04 12:18:15;;;;;;;4.77;1.30;;;17.00;99.90;;;;;;4993118;28;20324;-63
2021/10/04 12:20:44;;;;;;;3.53;1.13;;;16.90;99.90;;;;;;4980442;28;20234;-63
2021/10/04 12:23:20;;;;;;;3.80;1.30;;;16.90;99.90;;;;;;4983821;28;20241;-63
2021/10/04 12:25:50;;;;;;;5.70;1.43;;;17.00;99.90;;;;;;4983261;28;20733;-63
2021/10/04 12:28:19;;;;;;;2.83;0.90;;;17.10;99.90;;;;;;4986715;28;20335;-64
2021/10/04 12:30:50;;;;;;;4.97;1.30;;;17.10;99.90;;;;;;4982268;28;20332;-63
2021/10/04 12:33:20;;;;;;;4.27;1.30;;;17.00;99.90;;;;;;4981204;28;20273;-62
2021/10/04 12:35:50;;;;;;;3.20;1.10;;;17.10;99.90;;;;;;4977408;28;20614;-63
2021/10/04 12:38:19;;;;;;;4.10;1.27;;;17.20;99.90;;;;;;4980724;28;20718;-65
2021/10/04 12:40:50;;;;;;;6.27;0.90;;;17.30;99.90;;;;;;4988166;28;20851;-66
2021/10/04 12:43:25;;;;;;;5.00;1.17;;;17.20;99.90;;;;;;4995522;28;20233;-66
2021/10/04 12:45:56;;;;;;;4.27;1.20;;;17.20;99.90;;;;;;4992775;28;20298;-67
2021/10/04 12:48:27;;;;;;;5.30;1.20;;;17.20;99.90;;;;;;4988199;28;20266;-71
2021/10/04 12:51:07;;;;;;;4.90;1.23;;;17.20;99.90;;;;;;4998855;28;20248;-70
2021/10/04 12:53:45;;;;;;;3.87;1.40;;;17.20;99.90;;;;;;4983736;28;20238;-69
2021/10/04 12:56:14;;;;;;;5.13;1.10;;;17.20;99.90;;;;;;4988105;28;20315;-70
2021/10/04 12:58:42;;;;;;;3.43;1.10;;;17.20;99.90;;;;;;4991182;28;20661;-70
2021/10/04 13:01:13;;;;;;;3.67;1.20;;;17.30;99.90;;;;;;4987976;28;20457;-71